EGYM - Marham
Distance from station: E 5mi, 14km
Updated: 12/11/2017 10:14am
Mostly Cloudy
Mostly Cloudy
 Wind from NNW
Wind: NNW 17 mph , 28 km/h
Temperature: 36°F , 2°C
Wind Chill: 26°F , -3°C
Dew Point: 34°F , 1°C
Humidity: 93%
Barometer: 29.21 inHg , 989 hPa
Clouds: Mostly Cloudy
Visibility: 6 miles , 10 km
Cloud details: Few Clouds 1200 ft
Few Clouds 2000 ft
Mostly Cloudy 3600 ft
2017/12/11 18:14 EGYM 111814Z 33015KT 9999 FEW012 FEW020TCU BKN036 02/01 Q0989 BLU 6000 SHRA SCT018 WHT